Beach City, Ohio
Current Conditions -  °F | °C
As of 12:53 AM on Friday 28 Nov 2014 (Local Time) from KPHD Reporting Station
Overcast Overcast  
Wind Chill: 23°   Ceiling: 1800
Heat Index: 30°   Visibility: 10mi
Dew Point: 23°   Wind: 7mph
Humidity: 75%   Direction: 280°W
Pressure: 30.27"   Gusts: NA
Location:  40.65°N, 81.58°W
Report Text: KPHD 280553Z AUTO 28006KT 10SM BKN018 OVC024 M01/M05 A3027 RMK AO2 SLP261 60000 T10111050 11006 21017 50006
Loading
Personal Weather Stations






























Interactive Weather Map New forecast layout! Learn more

10-Day Weather Forecast

Advertisements
Track Severe Weather on mobile